Time;durP1;ratioP1;P1;durP2;ratioP2;P2;SDS_P1;SDS_P2;PMS_P1;PMS_P2;Temp;Humidity;BMP_temperature;BMP_pressure;BME280_temperature;BME280_humidity;BME280_pressure;Samples;Min_cycle;Max_cycle;Signal;HPM_P1;HPM_P2
2023/09/02 00:00:33;;;;;;;8.48;7.63;;;;;;;20.99;79.53;65195.28;5050976;28;20201;-54
2023/09/02 00:02:58;;;;;;;8.75;7.85;;;;;;;20.81;79.31;65173.38;5051080;28;20435;-56
2023/09/02 00:05:24;;;;;;;8.30;7.55;;;;;;;20.65;80.16;65155.13;5049386;28;20645;-54
2023/09/02 00:07:49;;;;;;;8.73;7.82;;;;;;;20.50;81.46;65139.09;5050588;28;20268;-55
2023/09/02 00:10:15;;;;;;;9.48;8.48;;;;;;;20.36;81.68;65123.63;5050677;28;20201;-54
2023/09/02 00:12:41;;;;;;;8.77;7.95;;;;;;;20.34;82.15;65121.44;5050606;28;20617;-54
2023/09/02 00:15:07;;;;;;;11.43;8.23;;;;;;;20.13;84.17;65095.09;5032703;28;20557;-55
2023/09/02 00:17:34;;;;;;;8.43;7.63;;;;;;;20.05;84.24;65089.94;5032589;28;20232;-58
2023/09/02 00:19:59;;;;;;;9.45;8.48;;;;;;;20.12;84.02;65094.00;5050423;28;20197;-55
2023/09/02 00:22:24;;;;;;;9.18;8.27;;;;;;;20.32;83.43;65121.25;5050696;28;20247;-57
2023/09/02 00:24:50;;;;;;;9.23;8.43;;;;;;;20.28;83.43;65114.25;5050359;28;20635;-55
2023/09/02 00:27:16;;;;;;;10.65;8.40;;;;;;;20.17;84.13;65099.50;5032355;28;20663;-54
2023/09/02 00:29:41;;;;;;;9.63;8.73;;;;;;;20.15;84.01;65099.88;5049671;28;20228;-55
2023/09/02 00:32:07;;;;;;;8.35;7.60;;;;;;;20.07;84.97;65091.59;5050019;28;20533;-53
2023/09/02 00:34:32;;;;;;;8.98;8.05;;;;;;;19.94;86.04;65080.34;5050395;28;20280;-56
2023/09/02 00:36:58;;;;;;;8.70;7.78;;;;;;;19.95;85.74;65081.44;5050106;28;20225;-55
2023/09/02 00:39:24;;;;;;;10.15;7.85;;;;;;;19.97;85.55;65077.97;5050020;28;20684;-58
2023/09/02 00:41:54;;;;;;;10.07;8.23;;;;;;;19.99;85.83;65080.75;5032248;28;20213;-55
2023/09/02 00:44:20;;;;;;;8.60;7.70;;;;;;;19.98;85.70;65084.75;5050061;28;20220;-54
2023/09/02 00:46:45;;;;;;;8.20;7.40;;;;;;;20.06;85.43;65090.47;5050195;28;20293;-54
2023/09/02 00:49:12;;;;;;;11.50;8.30;;;;;;;20.03;85.76;65087.72;5049972;28;20578;-55
2023/09/02 00:51:37;;;;;;;8.63;7.82;;;;;;;20.04;85.77;65086.25;5049779;28;20234;-53
2023/09/02 00:54:03;;;;;;;9.25;8.35;;;;;;;20.02;85.77;65086.59;5049939;28;20668;-52
2023/09/02 00:56:30;;;;;;;9.50;8.60;;;;;;;19.85;87.14;65067.84;5049817;28;20216;-53
2023/09/02 00:59:00;;;;;;;10.82;9.73;;;;;;;19.77;88.01;65058.44;5050119;28;20209;-54
2023/09/02 01:01:27;;;;;;;12.63;9.80;;;;;;;19.86;87.54;65068.38;5050040;28;20209;-53
2023/09/02 01:03:53;;;;;;;13.35;10.15;;;;;;;19.91;87.00;65074.47;5050013;28;20213;-54
2023/09/02 01:06:20;;;;;;;11.43;10.32;;;;;;;19.89;86.63;65072.25;5049588;28;20236;-53
2023/09/02 01:08:45;;;;;;;12.23;10.30;;;;;;;19.89;86.60;65074.81;5049592;28;20206;-53
2023/09/02 01:11:11;;;;;;;11.82;10.10;;;;;;;19.91;86.94;65074.47;5049598;28;20205;-53
2023/09/02 01:13:36;;;;;;;12.07;10.77;;;;;;;19.91;87.47;65074.47;5049640;28;20207;-53
2023/09/02 01:16:02;;;;;;;11.45;10.30;;;;;;;19.87;87.53;65066.94;5049675;28;20280;-59
2023/09/02 01:18:28;;;;;;;10.70;9.65;;;;;;;19.81;87.67;65065.97;5049683;28;20642;-54
2023/09/02 01:21:32;;;;;;;11.85;10.38;;;;;;;19.68;89.09;65051.63;5049512;28;20185;-54
2023/09/02 01:24:18;;;;;;;11.27;10.18;;;;;;;19.71;89.55;65052.38;5049669;28;20244;-54
2023/09/02 01:27:07;;;;;;;11.57;10.40;;;;;;;19.74;89.19;65055.69;5049377;28;20589;-54
2023/09/02 01:29:36;;;;;;;11.95;10.75;;;;;;;19.71;88.86;65054.94;5049278;28;20205;-54
2023/09/02 01:32:05;;;;;;;12.15;10.68;;;;;;;19.63;89.51;65048.09;5049384;28;20292;-55
2023/09/02 01:34:33;;;;;;;11.13;10.02;;;;;;;19.71;89.21;65052.38;5049502;28;20193;-50
2023/09/02 01:37:00;;;;;;;11.98;10.82;;;;;;;19.98;88.28;65079.63;5049671;28;20209;-51
2023/09/02 01:39:26;;;;;;;12.38;11.05;;;;;;;20.04;87.97;65088.81;5049480;28;20225;-52
2023/09/02 01:41:53;;;;;;;10.95;9.38;;;;;;;20.04;87.74;65088.81;5050725;28;20223;-51
2023/09/02 01:44:19;;;;;;;12.50;9.20;;;;;;;19.90;88.15;65073.34;5052860;28;20209;-51
2023/09/02 01:46:49;;;;;;;10.02;9.00;;;;;;;19.77;88.91;65059.00;5052864;28;20209;-51
2023/09/02 01:49:15;;;;;;;9.95;9.02;;;;;;;19.74;89.26;65055.13;5052778;28;20664;-50
2023/09/02 01:51:43;;;;;;;9.85;8.85;;;;;;;19.64;89.20;65044.09;5052896;28;20251;-50
2023/09/02 01:54:08;;;;;;;10.50;9.23;;;;;;;19.45;90.12;65026.22;5052853;28;20280;-50
2023/09/02 01:56:35;;;;;;;10.05;9.00;;;;;;;19.31;90.63;65010.19;5052753;28;20313;-50
2023/09/02 01:59:01;;;;;;;11.73;9.00;;;;;;;19.12;92.08;64990.31;5052750;28;20209;-50
2023/09/02 02:01:26;;;;;;;9.90;9.00;;;;;;;19.13;92.20;64988.31;5034672;28;20267;-51
2023/09/02 02:03:55;;;;;;;11.25;8.57;;;;;;;19.12;92.15;64990.31;5034613;28;20213;-50
2023/09/02 02:06:22;;;;;;;9.55;8.63;;;;;;;19.17;92.13;64992.72;5052331;28;20217;-50
2023/09/02 02:09:04;;;;;;;12.35;9.10;;;;;;;19.14;92.46;64991.97;5034542;28;20288;-50
2023/09/02 02:11:34;;;;;;;9.57;8.63;;;;;;;19.08;93.39;64985.91;5052505;28;20290;-50
2023/09/02 02:14:01;;;;;;;10.15;9.15;;;;;;;19.17;93.30;64995.28;5052425;28;20215;-51
2023/09/02 02:16:27;;;;;;;9.90;8.90;;;;;;;19.14;93.05;64989.41;5034531;28;20209;-50
2023/09/02 02:18:52;;;;;;;10.40;9.40;;;;;;;19.18;92.93;64996.94;5052519;28;20205;-50
2023/09/02 02:21:18;;;;;;;11.00;9.90;;;;;;;19.17;93.22;64995.28;5052345;28;20641;-51
2023/09/02 02:23:44;;;;;;;9.82;8.82;;;;;;;19.31;92.63;65007.63;5052304;28;20210;-51
2023/09/02 02:26:09;;;;;;;10.02;9.02;;;;;;;19.44;91.93;65022.56;5052198;28;20642;-51
2023/09/02 02:28:36;;;;;;;10.52;9.45;;;;;;;19.45;91.32;65023.69;5052121;28;20319;-51
2023/09/02 02:31:01;;;;;;;9.55;8.57;;;;;;;19.44;91.29;65022.00;5052203;28;20238;-51
2023/09/02 02:33:27;;;;;;;11.10;8.57;;;;;;;19.22;91.13;64998.81;5034189;28;20209;-50
2023/09/02 02:35:53;;;;;;;8.90;8.00;;;;;;;18.99;91.17;64975.41;5052194;28;20333;-50
2023/09/02 02:38:18;;;;;;;10.65;9.43;;;;;;;18.65;93.95;64932.78;5052404;28;20232;-51
2023/09/02 02:40:44;;;;;;;9.07;8.23;;;;;;;18.89;92.56;64959.28;5034250;28;20201;-51
2023/09/02 02:43:09;;;;;;;9.95;8.85;;;;;;;18.86;91.44;64961.06;5034212;28;20773;-50
2023/09/02 02:45:34;;;;;;;9.07;8.25;;;;;;;18.59;92.49;64928.72;5052094;28;20593;-52
2023/09/02 02:48:00;;;;;;;11.20;8.15;;;;;;;18.54;93.94;64923.22;5051979;28;20608;-50
2023/09/02 02:50:26;;;;;;;9.90;8.90;;;;;;;18.37;93.70;64908.09;5051972;28;20228;-50
2023/09/02 02:52:51;;;;;;;9.50;7.80;;;;;;;18.21;94.13;64887.34;5050760;28;20562;-51
2023/09/02 02:55:17;;;;;;;8.70;7.85;;;;;;;18.09;94.43;64874.69;5051719;28;20196;-51
2023/09/02 02:57:47;;;;;;;13.13;8.57;;;;;;;17.95;95.23;64858.69;5052226;28;20356;-51
2023/09/02 03:00:13;;;;;;;11.93;8.63;;;;;;;17.84;96.12;64846.53;5051451;28;20182;-51
2023/09/02 03:02:38;;;;;;;24.65;13.15;;;;;;;17.84;97.28;64847.09;5051333;28;20718;-50
2023/09/02 03:05:04;;;;;;;9.15;8.27;;;;;;;18.16;95.57;64884.94;5051561;28;20201;-54
2023/09/02 03:07:30;;;;;;;11.13;8.80;;;;;;;18.25;94.98;64892.31;5051513;28;20302;-51
2023/09/02 03:09:55;;;;;;;9.80;8.20;;;;;;;18.17;95.20;64886.03;5051259;28;20205;-50
2023/09/02 03:12:21;;;;;;;9.23;8.30;;;;;;;18.16;95.44;64884.94;5051591;28;20213;-51
2023/09/02 03:14:47;;;;;;;9.50;8.50;;;;;;;18.13;95.58;64879.09;5051798;28;20205;-56
2023/09/02 03:17:13;;;;;;;9.70;8.45;;;;;;;18.08;96.55;64876.13;5051798;28;20237;-52
2023/09/02 03:19:44;;;;;;;10.43;9.32;;;;;;;18.12;96.40;64880.00;5051505;28;20206;-51
2023/09/02 03:22:09;;;;;;;10.13;7.95;;;;;;;18.01;96.76;64865.84;5033628;28;20215;-51
2023/09/02 03:24:35;;;;;;;10.45;9.00;;;;;;;18.05;97.16;64872.25;5051445;28;20667;-53
2023/09/02 03:27:03;;;;;;;11.43;8.88;;;;;;;18.14;95.55;64880.19;5051142;28;20361;-50
2023/09/02 03:29:29;;;;;;;10.50;9.02;;;;;;;18.05;96.16;64869.72;5033266;28;20208;-52
2023/09/02 03:31:54;;;;;;;8.80;7.90;;;;;;;18.15;95.40;64883.84;5051524;28;20585;-51
2023/09/02 03:34:19;;;;;;;9.43;8.43;;;;;;;18.05;95.26;64869.72;5051222;28;20292;-51
2023/09/02 03:36:45;;;;;;;9.35;8.35;;;;;;;17.98;95.65;64862.53;5051256;28;20212;-54
2023/09/02 03:39:10;;;;;;;9.93;8.60;;;;;;;17.97;96.28;64860.88;5051259;28;20251;-51
2023/09/02 03:41:37;;;;;;;10.02;7.60;;;;;;;17.99;94.75;64863.66;5051120;28;20228;-52
2023/09/02 03:44:03;;;;;;;9.73;8.00;;;;;;;17.97;94.29;64863.44;5051167;28;20204;-52
2023/09/02 03:46:29;;;;;;;8.77;7.78;;;;;;;17.85;94.26;64850.75;5051078;28;20209;-51
2023/09/02 03:48:55;;;;;;;9.30;8.40;;;;;;;17.72;95.09;64836.41;5051076;28;20255;-50
2023/09/02 03:51:20;;;;;;;9.35;7.18;;;;;;;17.69;96.17;64833.13;5050858;28;20197;-51
2023/09/02 03:53:46;;;;;;;8.40;7.55;;;;;;;17.70;96.77;64831.66;5050921;28;20279;-51
2023/09/02 03:56:11;;;;;;;9.55;7.82;;;;;;;17.80;96.25;64845.25;5050980;28;20205;-52
2023/09/02 03:58:38;;;;;;;8.48;7.57;;;;;;;17.87;96.51;64852.97;5050889;28;20220;-51
2023/09/02 04:01:03;;;;;;;11.38;8.23;;;;;;;17.95;95.05;64861.22;5050657;28;20204;-52
2023/09/02 04:03:34;;;;;;;8.80;7.10;;;;;;;17.96;94.76;64862.31;5051033;28;20282;-51
2023/09/02 04:06:01;;;;;;;9.95;7.90;;;;;;;17.94;95.15;64858.13;5050358;28;20588;-51
2023/09/02 04:08:26;;;;;;;9.23;8.32;;;;;;;17.95;95.72;64858.69;5050666;28;20687;-52
2023/09/02 04:10:53;;;;;;;9.90;8.70;;;;;;;18.01;95.63;64865.28;5050822;28;20216;-51
2023/09/02 04:13:26;;;;;;;8.90;8.00;;;;;;;18.30;93.03;64897.28;5050824;28;20263;-51
2023/09/02 04:15:55;;;;;;;8.23;7.43;;;;;;;18.36;92.57;64907.00;5050848;28;20197;-51
2023/09/02 04:18:21;;;;;;;9.35;8.10;;;;;;;18.35;91.95;64905.91;5050764;28;20242;-51
2023/09/02 04:20:47;;;;;;;8.63;7.57;;;;;;;18.44;91.94;64913.28;5050700;28;20193;-52
2023/09/02 04:23:21;;;;;;;9.30;7.97;;;;;;;18.37;92.44;64905.56;5050780;28;20235;-52
2023/09/02 04:25:49;;;;;;;10.63;8.80;;;;;;;18.25;93.30;64894.88;5032678;28;20232;-52
2023/09/02 04:28:15;;;;;;;9.65;7.97;;;;;;;18.26;93.41;64893.41;5051020;28;20225;-53
2023/09/02 04:30:42;;;;;;;8.93;7.53;;;;;;;18.29;93.94;64896.16;5050820;28;20251;-51
2023/09/02 04:33:09;;;;;;;10.07;8.18;;;;;;;18.17;94.57;64886.03;5033112;28;20213;-51
2023/09/02 04:35:53;;;;;;;9.38;8.38;;;;;;;18.10;95.82;64877.78;5050383;28;20263;-51
2023/09/02 04:38:19;;;;;;;8.80;7.90;;;;;;;18.07;96.85;64872.47;5050799;28;20205;-52
2023/09/02 04:40:45;;;;;;;9.75;8.63;;;;;;;18.04;97.95;64868.63;5050347;28;20215;-51
2023/09/02 04:43:11;;;;;;;10.13;9.02;;;;;;;17.94;97.67;64860.69;5050358;28;20217;-52
2023/09/02 04:45:39;;;;;;;8.93;7.95;;;;;;;17.98;98.18;64862.53;5050443;28;20197;-52
2023/09/02 04:48:07;;;;;;;12.55;9.88;;;;;;;17.75;99.60;64837.19;5050090;28;20225;-54
2023/09/02 04:50:33;;;;;;;12.20;10.00;;;;;;;17.77;100.00;64838.84;5050125;28;20204;-50
2023/09/02 04:53:00;;;;;;;10.85;8.93;;;;;;;17.92;99.83;64860.47;5050252;28;20676;-51
2023/09/02 04:55:26;;;;;;;11.38;9.25;;;;;;;17.97;99.39;64864.00;5050285;28;20220;-50
2023/09/02 04:57:56;;;;;;;11.93;9.75;;;;;;;17.98;99.49;64865.09;5050322;28;20220;-51
2023/09/02 05:00:29;;;;;;;11.55;10.35;;;;;;;17.99;99.49;64865.66;5050180;28;20632;-51
2023/09/02 05:02:55;;;;;;;13.93;10.93;;;;;;;18.13;98.72;64881.06;5050155;28;20599;-51
2023/09/02 05:05:22;;;;;;;11.77;10.00;;;;;;;18.21;98.50;64885.34;5050061;28;20280;-52
2023/09/02 05:07:47;;;;;;;12.50;10.30;;;;;;;18.18;99.48;64884.59;5049890;28;20217;-51
2023/09/02 05:10:14;;;;;;;11.63;9.85;;;;;;;18.21;99.07;64890.47;5032185;28;20695;-51
2023/09/02 05:12:42;;;;;;;13.48;10.00;;;;;;;18.30;98.51;64897.81;5050317;28;20213;-51
2023/09/02 05:15:08;;;;;;;10.52;9.38;;;;;;;18.39;97.97;64905.22;5049903;28;20233;-52
2023/09/02 05:17:34;;;;;;;10.93;9.40;;;;;;;18.31;98.50;64898.94;5052176;28;20205;-51
2023/09/02 05:20:03;;;;;;;14.60;9.50;;;;;;;18.41;97.70;64907.41;5053920;28;20209;-51
2023/09/02 05:22:28;;;;;;;12.32;9.80;;;;;;;18.40;97.29;64911.41;5053856;28;20641;-53
2023/09/02 05:24:54;;;;;;;11.07;9.98;;;;;;;18.46;97.37;64914.94;5053577;28;20236;-59
2023/09/02 05:27:19;;;;;;;12.52;11.23;;;;;;;18.57;96.35;64926.53;5053587;28;20611;-55
2023/09/02 05:29:45;;;;;;;11.73;9.48;;;;;;;18.66;99.50;64936.47;5035953;28;20208;-51
2023/09/02 05:32:12;;;;;;;16.08;12.07;;;;;;;18.74;96.09;64945.28;5053769;28;20205;-57
2023/09/02 05:34:38;;;;;;;12.70;11.38;;;;;;;18.76;95.40;64947.50;5053522;28;20694;-57
2023/09/02 05:37:03;;;;;;;12.60;11.00;;;;;;;18.40;98.67;64905.75;5053465;28;20209;-53
2023/09/02 05:39:29;;;;;;;12.60;11.32;;;;;;;18.55;97.01;64924.88;5053343;28;20216;-54
2023/09/02 05:41:55;;;;;;;14.43;11.82;;;;;;;18.66;96.01;64936.47;5053217;28;20220;-53
2023/09/02 05:44:20;;;;;;;16.40;12.63;;;;;;;18.84;95.03;64956.31;5053542;28;20186;-52
2023/09/02 05:46:46;;;;;;;13.25;10.57;;;;;;;19.32;100.00;65009.28;5053230;28;20217;-53
2023/09/02 05:49:13;;;;;;;12.45;11.15;;;;;;;19.52;96.07;65031.38;5053473;28;20295;-56
2023/09/02 05:51:39;;;;;;;12.57;11.25;;;;;;;19.63;92.05;65040.44;5053367;28;20559;-57
2023/09/02 05:54:06;;;;;;;18.15;13.10;;;;;;;19.55;90.86;65034.16;5053292;28;20271;-51
2023/09/02 05:56:33;;;;;;;13.95;12.25;;;;;;;19.42;91.73;65020.34;5053144;28;20219;-50
2023/09/02 05:59:00;;;;;;;14.07;12.07;;;;;;;19.02;95.07;64974.19;5053143;28;20213;-51
2023/09/02 06:01:25;;;;;;;13.98;12.35;;;;;;;18.93;95.44;64968.78;5053191;28;20217;-51
2023/09/02 06:03:51;;;;;;;18.52;12.70;;;;;;;19.00;94.58;64974.53;5052894;28;20627;-51
2023/09/02 06:06:16;;;;;;;15.00;12.52;;;;;;;19.32;92.96;65009.28;5052906;28;20774;-51
2023/09/02 06:08:42;;;;;;;15.23;10.95;;;;;;;19.64;96.53;65047.19;5052835;28;20215;-50
2023/09/02 06:11:07;;;;;;;15.93;13.10;;;;;;;19.82;93.17;65061.41;5053029;28;20212;-50
2023/09/02 06:13:34;;;;;;;15.75;11.60;;;;;;;19.84;93.42;65064.16;5053299;28;20194;-51
2023/09/02 06:16:04;;;;;;;13.30;11.43;;;;;;;20.17;89.02;65099.50;5052464;28;20198;-55
2023/09/02 06:18:31;;;;;;;12.90;10.60;;;;;;;20.65;91.97;65155.13;5052810;28;20287;-51
2023/09/02 06:20:58;;;;;;;13.35;10.38;;;;;;;20.97;89.98;65187.94;5035057;28;20651;-53
2023/09/02 06:23:24;;;;;;;11.82;9.98;;;;;;;21.34;87.64;65230.91;5052561;28;20229;-53
2023/09/02 06:26:01;;;;;;;12.13;10.82;;;;;;;21.51;84.72;65250.25;5035207;28;20198;-51
2023/09/02 06:28:27;;;;;;;13.82;11.02;;;;;;;21.49;78.47;65245.47;5052436;28;20225;-51
2023/09/02 06:30:53;;;;;;;12.27;10.57;;;;;;;21.27;81.85;65223.69;5052638;28;20204;-51
2023/09/02 06:33:21;;;;;;;17.90;11.27;;;;;;;21.50;89.03;65246.59;5052420;28;20569;-53
2023/09/02 06:35:47;;;;;;;13.65;12.10;;;;;;;21.47;82.21;65243.25;5052322;28;20201;-53
2023/09/02 06:38:13;;;;;;;13.70;10.65;;;;;;;21.74;86.33;65275.69;5052295;28;20213;-54
2023/09/02 06:40:38;;;;;;;16.92;12.27;;;;;;;21.83;80.18;65284.56;5052412;28;20287;-53
2023/09/02 06:43:04;;;;;;;11.90;10.23;;;;;;;21.82;80.62;65284.00;5052225;28;20213;-55
2023/09/02 06:45:30;;;;;;;12.45;11.15;;;;;;;22.16;78.23;65321.09;5051142;28;20627;-59
2023/09/02 06:48:02;;;;;;;12.90;10.13;;;;;;;22.30;78.92;65334.56;5052783;28;20213;-61
2023/09/02 06:50:28;;;;;;;14.95;10.57;;;;;;;22.29;79.03;65332.91;5052177;28;20305;-51
2023/09/02 06:52:53;;;;;;;12.48;11.18;;;;;;;22.05;75.54;65306.91;5050654;28;20213;-51
2023/09/02 06:55:19;;;;;;;11.40;10.00;;;;;;;21.54;76.80;65253.00;5052190;28;20219;-51
2023/09/02 06:57:45;;;;;;;12.13;10.95;;;;;;;21.35;78.32;65229.97;5051788;28;20705;-51
2023/09/02 07:00:14;;;;;;;11.77;10.57;;;;;;;21.02;79.36;65195.50;5051964;28;20202;-51
2023/09/02 07:02:40;;;;;;;14.50;11.68;;;;;;;20.95;79.86;65188.31;5052164;28;20206;-50
2023/09/02 07:05:06;;;;;;;12.38;11.07;;;;;;;20.92;80.18;65183.00;5052358;28;20208;-51
2023/09/02 07:07:32;;;;;;;12.82;10.95;;;;;;;21.05;79.89;65196.28;5051813;28;20252;-54
2023/09/02 07:09:58;;;;;;;16.63;11.02;;;;;;;21.09;79.82;65203.25;5053992;28;20201;-51
2023/09/02 07:12:39;;;;;;;11.82;10.57;;;;;;;21.23;79.08;65216.19;5034652;28;20217;-54
2023/09/02 07:15:08;;;;;;;16.95;11.30;;;;;;;21.33;79.38;65232.91;5033514;28;20213;-54
2023/09/02 07:17:33;;;;;;;12.23;10.98;;;;;;;21.53;77.57;65251.91;5051816;28;20611;-51
2023/09/02 07:19:59;;;;;;;15.57;11.52;;;;;;;21.67;77.57;65267.94;5034005;28;20734;-51
2023/09/02 07:22:25;;;;;;;16.25;12.60;;;;;;;21.77;76.27;65275.91;5033837;28;20221;-52
2023/09/02 07:24:51;;;;;;;20.85;15.70;;;;;;;21.94;76.21;65294.72;5051657;28;20640;-52
2023/09/02 07:27:17;;;;;;;13.35;11.65;;;;;;;21.96;76.35;65298.97;5051524;28;20247;-50
2023/09/02 07:29:42;;;;;;;14.35;11.52;;;;;;;22.21;75.31;65326.63;5051877;28;20574;-51
2023/09/02 07:32:07;;;;;;;12.38;10.98;;;;;;;22.60;73.81;65367.25;5051867;28;20213;-52
2023/09/02 07:34:37;;;;;;;27.05;14.93;;;;;;;22.56;72.94;65363.34;5051442;28;20749;-51
2023/09/02 07:37:02;;;;;;;13.52;10.90;;;;;;;23.04;70.48;65418.56;5051635;28;20229;-54
2023/09/02 07:39:28;;;;;;;85.90;28.27;;;;;;;22.92;71.45;65405.25;5051151;28;20275;-51
2023/09/02 07:41:54;;;;;;;49.13;21.20;;;;;;;23.05;71.27;65417.09;5051466;28;20602;-53
2023/09/02 07:44:19;;;;;;;11.32;9.63;;;;;;;23.33;68.30;65447.59;5051574;28;20213;-52
2023/09/02 07:46:45;;;;;;;14.48;11.98;;;;;;;23.54;67.47;65470.28;5051424;28;20224;-51
2023/09/02 07:49:10;;;;;;;10.07;9.10;;;;;;;23.71;66.64;65491.69;5051460;28;20201;-58
2023/09/02 07:51:35;;;;;;;35.20;25.30;;;;;;;23.64;66.79;65481.91;5051239;28;20209;-52
2023/09/02 07:54:01;;;;;;;32.58;22.45;;;;;;;23.39;66.60;65454.22;5051609;28;20185;-55
2023/09/02 07:56:26;;;;;;;10.50;9.38;;;;;;;23.69;64.06;65486.91;5051289;28;20205;-53
2023/09/02 07:58:52;;;;;;;10.90;8.77;;;;;;;23.99;62.54;65522.75;5051153;28;20668;-54
2023/09/02 08:01:18;;;;;;;14.23;11.70;;;;;;;24.02;63.71;65523.47;5049635;28;20259;-54
2023/09/02 08:03:44;;;;;;;17.58;14.30;;;;;;;23.73;64.60;65494.47;5051362;28;20202;-50
2023/09/02 08:06:09;;;;;;;14.13;10.18;;;;;;;23.54;64.54;65470.84;5051051;28;20713;-50
2023/09/02 08:08:38;;;;;;;14.80;8.40;;;;;;;24.04;62.14;65525.72;5050681;28;20221;-50
2023/09/02 08:11:05;;;;;;;13.23;8.25;;;;;;;24.23;60.89;65544.22;5050726;28;20205;-55
2023/09/02 08:13:31;;;;;;;9.15;7.85;;;;;;;24.30;60.40;65554.53;5050878;28;20193;-51
2023/09/02 08:15:57;;;;;;;9.13;7.90;;;;;;;24.39;60.58;65561.97;5051028;28;20220;-51
2023/09/02 08:18:23;;;;;;;12.27;8.40;;;;;;;24.54;61.24;65580.63;5051065;28;20197;-51
2023/09/02 08:20:48;;;;;;;14.52;8.75;;;;;;;24.18;61.17;65541.25;5033214;28;20685;-51
2023/09/02 08:23:14;;;;;;;11.00;8.55;;;;;;;24.62;60.08;65589.50;5050961;28;20205;-55
2023/09/02 08:25:40;;;;;;;10.68;7.38;;;;;;;24.73;60.23;65602.25;5033012;28;20205;-55
2023/09/02 08:28:05;;;;;;;16.50;10.48;;;;;;;24.50;61.57;65578.75;5050760;28;20213;-51
2023/09/02 08:30:31;;;;;;;8.65;7.32;;;;;;;24.96;58.05;65625.22;5050726;28;20577;-50
2023/09/02 08:32:56;;;;;;;9.02;7.05;;;;;;;24.90;58.19;65620.56;5050976;28;20591;-50
2023/09/02 08:35:22;;;;;;;10.93;6.95;;;;;;;24.92;56.78;65623.34;5051089;28;20201;-52
2023/09/02 08:37:48;;;;;;;12.38;7.47;;;;;;;25.32;57.90;65666.63;5032513;28;20694;-53
2023/09/02 08:40:14;;;;;;;8.52;7.40;;;;;;;25.70;56.89;65708.81;5050794;28;20174;-59
2023/09/02 08:42:41;;;;;;;8.35;7.45;;;;;;;25.98;56.02;65739.38;5069455;22;20289;-53
2023/09/02 08:45:11;;;;;;;9.07;6.55;;;;;;;26.07;54.13;65749.94;5070641;28;20197;-53
2023/09/02 08:47:40;;;;;;;7.15;6.47;;;;;;;26.26;51.96;65770.50;5037483;28;20731;-54
2023/09/02 08:50:10;;;;;;;8.88;6.63;;;;;;;26.07;52.74;65749.38;5050578;28;20210;-53
2023/09/02 08:52:37;;;;;;;9.10;6.10;;;;;;;26.41;53.80;65787.16;5049758;28;20235;-53
2023/09/02 08:55:03;;;;;;;8.38;7.07;;;;;;;26.55;52.12;65803.25;5050494;28;20247;-53
2023/09/02 08:57:30;;;;;;;8.32;6.85;;;;;;;26.52;52.12;65799.38;5050684;28;20210;-53
2023/09/02 08:59:55;;;;;;;6.63;5.95;;;;;;;26.76;51.10;65820.31;5050534;28;20201;-52
2023/09/02 09:02:21;;;;;;;9.68;6.38;;;;;;;27.24;51.50;65874.22;5050530;28;20296;-53
2023/09/02 09:04:52;;;;;;;7.15;6.45;;;;;;;27.34;50.98;65890.00;5050515;28;20205;-52
2023/09/02 09:07:20;;;;;;;8.23;7.13;;;;;;;27.57;49.84;65915.56;5050363;28;20217;-53
2023/09/02 09:09:48;;;;;;;9.68;5.97;;;;;;;27.80;47.84;65935.41;5032350;28;20194;-53
2023/09/02 09:12:15;;;;;;;7.80;6.65;;;;;;;28.13;47.46;65975.28;5050341;28;20220;-54
2023/09/02 09:14:45;;;;;;;7.53;6.63;;;;;;;28.49;47.22;66012.19;5050251;28;20197;-53
2023/09/02 09:17:12;;;;;;;9.10;6.85;;;;;;;28.54;45.58;66019.78;5050464;28;20303;-53
2023/09/02 09:19:38;;;;;;;13.77;9.35;;;;;;;27.73;48.26;65930.78;5050169;28;20193;-52
2023/09/02 09:22:04;;;;;;;13.07;9.35;;;;;;;27.67;47.82;65921.50;5050573;28;20217;-57
2023/09/02 09:24:30;;;;;;;9.55;7.45;;;;;;;27.73;48.13;65930.22;5050038;28;20205;-51
2023/09/02 09:26:59;;;;;;;11.75;9.40;;;;;;;28.61;46.38;66028.16;5049997;28;20228;-50
2023/09/02 09:29:25;;;;;;;12.48;9.07;;;;;;;29.13;46.01;66084.94;5032435;28;20707;-56
2023/09/02 09:32:07;;;;;;;21.48;18.88;;;;;;;29.33;45.70;66107.78;5049967;28;20217;-59
2023/09/02 09:34:40;;;;;;;7.22;6.53;;;;;;;29.67;44.62;66145.66;5050169;28;20201;-53
2023/09/02 09:37:07;;;;;;;7.57;6.50;;;;;;;29.97;43.80;66175.94;5050081;28;20214;-57
2023/09/02 09:39:41;;;;;;;6.18;5.68;;;;;;;30.18;43.32;66204.53;5031962;28;20202;-52
2023/09/02 09:42:07;;;;;;;18.02;13.73;;;;;;;30.26;41.67;66213.44;5050280;28;20217;-52
2023/09/02 09:44:33;;;;;;;21.42;18.55;;;;;;;30.06;41.42;66188.03;5049840;28;20205;-53
2023/09/02 09:46:58;;;;;;;11.52;9.40;;;;;;;29.61;42.19;66141.56;5049881;28;20230;-52
2023/09/02 09:49:29;;;;;;;11.52;10.32;;;;;;;30.27;41.31;66211.97;5049635;28;20189;-53
2023/09/02 09:52:01;;;;;;;7.60;6.57;;;;;;;30.75;41.75;66264.94;5049885;28;20266;-54
2023/09/02 09:54:56;;;;;;;21.50;17.98;;;;;;;30.34;40.58;66219.78;5050265;28;20752;-51
2023/09/02 09:57:30;;;;;;;6.25;5.65;;;;;;;30.47;39.87;66233.72;5032744;28;20221;-52
2023/09/02 09:59:57;;;;;;;16.70;14.98;;;;;;;30.53;40.17;66237.81;5049711;28;20803;-54
2023/09/02 10:02:23;;;;;;;7.45;6.45;;;;;;;31.14;40.41;66308.47;5050035;28;20282;-53
2023/09/02 10:04:51;;;;;;;9.18;5.88;;;;;;;31.48;38.75;66345.84;5053115;28;20194;-51
2023/09/02 10:07:25;;;;;;;6.03;4.93;;;;;;;31.29;38.40;66327.25;5052610;28;20312;-52
2023/09/02 10:09:54;;;;;;;7.43;5.85;;;;;;;31.04;38.70;66294.69;5053074;28;20215;-51
2023/09/02 10:12:20;;;;;;;6.18;5.57;;;;;;;31.13;38.72;66304.72;5053042;28;20212;-51
2023/09/02 10:14:47;;;;;;;5.88;4.55;;;;;;;31.39;38.17;66336.34;5035124;28;20578;-50
2023/09/02 10:17:14;;;;;;;4.78;4.38;;;;;;;31.65;37.57;66367.44;5053061;28;20220;-52
2023/09/02 10:19:40;;;;;;;7.85;5.22;;;;;;;31.34;36.83;66333.38;5035291;28;20262;-51
2023/09/02 10:22:06;;;;;;;5.22;4.72;;;;;;;31.62;36.66;66360.91;5053215;28;20350;-52
2023/09/02 10:24:41;;;;;;;6.30;5.40;;;;;;;31.72;36.86;66369.44;5052710;28;20197;-51
2023/09/02 10:27:14;;;;;;;4.90;4.50;;;;;;;31.69;36.34;66369.28;5053130;28;20576;-53
2023/09/02 10:29:46;;;;;;;4.75;4.35;;;;;;;31.68;36.27;66370.19;5035180;28;20589;-54
2023/09/02 10:32:15;;;;;;;5.15;4.75;;;;;;;32.18;36.09;66423.41;5053094;28;20205;-53
2023/09/02 10:35:00;;;;;;;4.70;4.30;;;;;;;32.56;34.52;66463.28;5052839;28;20212;-54
2023/09/02 10:37:34;;;;;;;5.30;4.80;;;;;;;32.42;33.91;66449.66;5052804;28;20213;-54
2023/09/02 10:40:06;;;;;;;6.68;5.63;;;;;;;32.74;35.28;66483.38;5052969;28;20212;-56
2023/09/02 10:42:34;;;;;;;6.05;5.20;;;;;;;32.21;34.52;66427.34;5052538;28;20206;-55
2023/09/02 10:45:00;;;;;;;4.57;4.25;;;;;;;30.70;35.11;66259.38;5052471;28;20260;-54
2023/09/02 10:47:25;;;;;;;11.02;10.00;;;;;;;30.60;36.64;66250.84;5052584;28;20228;-52
2023/09/02 10:49:53;;;;;;;5.10;4.70;;;;;;;31.22;36.34;66314.22;5052401;28;20201;-52
2023/09/02 10:52:18;;;;;;;5.93;5.43;;;;;;;30.76;37.73;66262.91;5052814;28;20609;-50
2023/09/02 10:55:02;;;;;;;6.00;5.45;;;;;;;30.17;37.20;66200.84;5052331;28;20276;-50
2023/09/02 10:57:32;;;;;;;6.57;5.82;;;;;;;30.46;36.65;66235.75;5050749;28;20228;-50
2023/09/02 11:00:20;;;;;;;6.60;5.10;;;;;;;30.54;35.67;66244.16;5052377;28;20205;-54
2023/09/02 11:02:47;;;;;;;5.90;5.30;;;;;;;30.92;36.52;66285.97;5052367;28;20212;-52
2023/09/02 11:05:13;;;;;;;5.30;4.80;;;;;;;30.34;36.06;66216.66;5052454;28;20201;-54
2023/09/02 11:07:40;;;;;;;4.68;4.22;;;;;;;31.03;35.58;66298.78;5052747;28;20217;-53
2023/09/02 11:10:07;;;;;;;5.15;4.38;;;;;;;31.52;35.09;66350.31;5052122;28;20285;-54
2023/09/02 11:12:33;;;;;;;4.85;4.40;;;;;;;31.79;34.41;66379.88;5052261;28;20232;-53
2023/09/02 11:15:08;;;;;;;6.05;5.45;;;;;;;31.92;34.21;66394.38;5050941;28;20177;-53
2023/09/02 11:17:38;;;;;;;5.43;4.93;;;;;;;32.06;34.21;66413.19;5051961;28;20256;-54
2023/09/02 11:20:25;;;;;;;4.57;4.18;;;;;;;32.33;33.25;66437.56;5052000;28;20251;-53
2023/09/02 11:22:51;;;;;;;5.82;4.80;;;;;;;32.76;33.34;66488.22;5034378;28;20228;-55
2023/09/02 11:25:37;;;;;;;5.60;5.18;;;;;;;33.22;32.15;66539.06;5051797;28;20201;-55
2023/09/02 11:28:05;;;;;;;5.10;4.70;;;;;;;33.49;32.01;66566.06;5052005;28;20308;-51